Time;durP1;ratioP1;P1;durP2;ratioP2;P2;SDS_P1;SDS_P2;PMS_P1;PMS_P2;Temp;Humidity;BMP_temperature;BMP_pressure;BME280_temperature;BME280_humidity;BME280_pressure;Samples;Min_cycle;Max_cycle;Signal;HPM_P1;HPM_P2
2021/05/20 00:02:07;;;;;;;35.08;23.13;;;8.80;99.90;;;;;;5107428;28;20111;-76
2021/05/20 00:04:33;;;;;;;40.45;23.90;;;8.70;99.90;;;;;;5105601;28;20055;-76
2021/05/20 00:06:58;;;;;;;35.88;23.70;;;8.70;99.90;;;;;;5113336;28;20032;-76
2021/05/20 00:09:24;;;;;;;34.05;24.10;;;8.70;99.90;;;;;;5113673;28;20031;-76
2021/05/20 00:11:50;;;;;;;30.02;21.60;;;8.70;99.90;;;;;;5113916;28;20027;-76
2021/05/20 00:14:15;;;;;;;33.83;23.15;;;8.70;99.90;;;;;;5113018;28;20011;-76
2021/05/20 00:16:41;;;;;;;38.60;24.13;;;8.70;99.90;;;;;;5113174;28;20031;-77
2021/05/20 00:19:07;;;;;;;46.70;26.80;;;8.70;99.90;;;;;;5113950;28;20053;-78
2021/05/20 00:21:34;;;;;;;38.90;26.80;;;8.60;99.90;;;;;;5114708;28;20038;-77
2021/05/20 00:23:59;;;;;;;45.58;27.52;;;8.70;99.90;;;;;;5119185;28;20498;-78
2021/05/20 00:26:25;;;;;;;44.00;25.73;;;8.70;99.90;;;;;;5113943;28;20028;-76
2021/05/20 00:28:50;;;;;;;38.20;25.20;;;8.70;99.90;;;;;;5113078;28;20022;-76
2021/05/20 00:31:16;;;;;;;39.65;26.02;;;8.70;99.90;;;;;;5112965;28;20023;-76
2021/05/20 00:33:41;;;;;;;37.28;26.02;;;8.70;99.90;;;;;;5116454;28;20032;-76
2021/05/20 00:36:07;;;;;;;53.28;24.40;;;8.70;99.90;;;;;;5113412;28;20467;-76
2021/05/20 00:38:33;;;;;;;35.03;21.98;;;8.60;99.90;;;;;;5120823;28;20088;-77
2021/05/20 00:41:02;;;;;;;56.33;22.90;;;8.60;99.90;;;;;;5114544;28;20027;-76
2021/05/20 00:43:28;;;;;;;38.88;22.45;;;8.60;99.90;;;;;;5112281;28;20034;-76
2021/05/20 00:45:54;;;;;;;65.00;21.90;;;8.50;99.90;;;;;;5113391;28;20032;-77
2021/05/20 00:48:20;;;;;;;38.50;21.48;;;8.60;99.90;;;;;;5112996;28;20054;-77
2021/05/20 00:50:46;;;;;;;40.38;21.95;;;8.50;99.90;;;;;;5112152;28;20043;-77
2021/05/20 00:53:13;;;;;;;53.45;23.75;;;8.50;99.90;;;;;;5112973;28;20073;-77
2021/05/20 00:55:39;;;;;;;50.40;25.52;;;8.50;99.90;;;;;;5113353;28;20041;-76
2021/05/20 00:58:06;;;;;;;61.78;25.80;;;8.40;99.90;;;;;;5112248;28;20034;-75
2021/05/20 01:00:33;;;;;;;76.97;26.33;;;8.40;99.90;;;;;;5113116;28;20073;-75
2021/05/20 01:02:59;;;;;;;51.03;26.50;;;8.40;99.90;;;;;;5099617;28;20016;-76
2021/05/20 01:05:25;;;;;;;104.85;28.20;;;8.40;99.90;;;;;;5110873;28;20126;-77
2021/05/20 01:07:50;;;;;;;256.25;29.92;;;8.30;99.90;;;;;;5112749;28;20502;-76
2021/05/20 01:10:16;;;;;;;103.10;27.85;;;8.30;99.90;;;;;;5111743;28;20029;-79
2021/05/20 01:12:42;;;;;;;93.22;25.20;;;8.30;99.90;;;;;;5112996;28;20126;-76
2021/05/20 01:15:28;;;;;;;45.47;27.83;;;8.30;99.90;;;;;;5112944;28;20027;-76
2021/05/20 01:18:00;;;;;;;72.65;28.63;;;8.30;99.90;;;;;;5106179;28;20028;-76
2021/05/20 01:20:31;;;;;;;63.20;28.48;;;8.30;99.90;;;;;;5095104;28;20763;-76
2021/05/20 01:23:08;;;;;;;50.95;31.90;;;8.20;99.90;;;;;;5092568;28;20069;-77
2021/05/20 01:25:35;;;;;;;61.03;33.38;;;8.20;99.90;;;;;;5091725;28;20028;-76
2021/05/20 01:28:04;;;;;;;59.72;33.90;;;8.20;99.90;;;;;;5092360;28;20365;-74
2021/05/20 01:30:34;;;;;;;54.92;33.45;;;8.20;99.90;;;;;;5091665;28;20035;-77
2021/05/20 01:33:00;;;;;;;59.70;33.70;;;8.20;99.90;;;;;;5091593;28;20573;-76
2021/05/20 01:35:26;;;;;;;61.05;34.40;;;8.10;99.90;;;;;;5091773;28;20058;-75
2021/05/20 01:38:10;;;;;;;59.30;35.88;;;8.20;99.90;;;;;;5092275;28;20035;-76
2021/05/20 01:40:36;;;;;;;56.45;33.42;;;8.20;99.90;;;;;;5091324;28;20020;-77
2021/05/20 01:43:02;;;;;;;58.97;33.15;;;8.10;99.90;;;;;;5092105;28;20019;-78
2021/05/20 01:45:27;;;;;;;56.35;32.38;;;8.10;99.90;;;;;;5090881;28;20024;-77
2021/05/20 01:47:53;;;;;;;59.53;34.28;;;8.10;99.90;;;;;;5100894;28;20024;-77
2021/05/20 01:50:21;;;;;;;52.72;33.45;;;8.10;99.90;;;;;;5111802;28;20020;-77
2021/05/20 01:52:47;;;;;;;52.72;32.83;;;8.10;99.90;;;;;;5091831;28;20032;-78
2021/05/20 01:55:13;;;;;;;57.22;33.28;;;8.00;99.90;;;;;;5091810;28;20020;-77
2021/05/20 01:57:38;;;;;;;62.42;37.42;;;8.00;99.90;;;;;;5091916;28;20028;-77
2021/05/20 02:00:05;;;;;;;57.80;35.25;;;8.00;99.90;;;;;;5091904;28;20098;-77
2021/05/20 02:02:30;;;;;;;55.22;34.53;;;8.00;99.90;;;;;;5100546;28;20020;-77
2021/05/20 02:04:56;;;;;;;58.00;35.33;;;8.00;99.90;;;;;;5092306;28;20027;-77
2021/05/20 02:07:21;;;;;;;53.78;34.10;;;8.00;99.90;;;;;;5096532;28;20058;-78
2021/05/20 02:09:47;;;;;;;50.88;33.22;;;8.00;99.90;;;;;;5113543;28;20080;-77
2021/05/20 02:12:12;;;;;;;55.50;34.80;;;8.00;99.90;;;;;;5098413;28;20044;-76
2021/05/20 02:14:38;;;;;;;53.95;33.58;;;7.90;99.90;;;;;;5112407;28;20020;-75
2021/05/20 02:17:04;;;;;;;57.42;37.63;;;8.00;99.90;;;;;;5108008;28;20028;-76
2021/05/20 02:19:30;;;;;;;59.47;35.88;;;7.90;99.90;;;;;;5091884;28;20023;-76
2021/05/20 02:21:55;;;;;;;55.20;35.20;;;7.90;99.90;;;;;;5107096;28;20048;-76
2021/05/20 02:24:21;;;;;;;58.45;35.72;;;7.90;99.90;;;;;;5111936;28;20434;-76
2021/05/20 02:26:46;;;;;;;62.95;38.05;;;7.90;99.90;;;;;;5115215;28;20144;-77
2021/05/20 02:29:12;;;;;;;57.30;36.13;;;7.90;99.90;;;;;;5113360;28;20531;-77
2021/05/20 02:31:37;;;;;;;68.45;40.03;;;7.90;99.90;;;;;;5111660;28;20522;-76
2021/05/20 02:34:03;;;;;;;66.32;40.60;;;7.90;99.90;;;;;;5112214;28;20015;-76
2021/05/20 02:36:29;;;;;;;66.13;39.60;;;7.90;99.90;;;;;;5103809;28;20030;-76
2021/05/20 02:38:54;;;;;;;71.10;41.38;;;7.90;99.90;;;;;;5112103;28;20035;-76
2021/05/20 02:41:20;;;;;;;66.10;38.35;;;7.90;99.90;;;;;;5120460;28;20015;-77
2021/05/20 02:43:45;;;;;;;70.68;41.47;;;7.90;99.90;;;;;;5118133;28;20084;-77
2021/05/20 02:46:11;;;;;;;74.93;41.95;;;7.90;99.90;;;;;;5115359;28;20042;-76
2021/05/20 02:48:37;;;;;;;73.55;41.95;;;7.90;99.90;;;;;;5115163;28;20034;-76
2021/05/20 02:51:03;;;;;;;67.40;41.15;;;7.90;99.90;;;;;;5101095;28;20016;-76
2021/05/20 02:53:29;;;;;;;75.95;43.60;;;8.00;99.90;;;;;;5114829;28;20132;-77
2021/05/20 02:55:54;;;;;;;76.90;43.30;;;8.00;99.90;;;;;;5114406;28;20035;-77
2021/05/20 02:58:21;;;;;;;76.65;44.08;;;7.90;99.90;;;;;;5114788;28;20020;-75
2021/05/20 03:00:47;;;;;;;74.57;44.22;;;7.90;99.90;;;;;;5115438;28;20023;-76
2021/05/20 03:03:14;;;;;;;76.95;44.55;;;7.90;99.90;;;;;;5114234;28;20012;-77
2021/05/20 03:05:40;;;;;;;73.32;41.60;;;7.90;99.90;;;;;;5115236;28;20016;-77
2021/05/20 03:08:08;;;;;;;69.65;42.33;;;8.00;99.90;;;;;;5115069;28;20345;-77
2021/05/20 03:10:33;;;;;;;67.32;40.75;;;7.90;99.90;;;;;;5114025;28;20024;-78
2021/05/20 03:12:59;;;;;;;52.25;35.03;;;7.90;99.90;;;;;;5114986;28;20054;-78
2021/05/20 03:15:25;;;;;;;49.53;30.80;;;7.90;99.90;;;;;;5114782;28;20027;-78
2021/05/20 03:17:50;;;;;;;47.17;26.77;;;7.90;99.90;;;;;;5114306;28;20023;-78
2021/05/20 03:20:17;;;;;;;51.35;27.77;;;8.00;99.90;;;;;;5109835;28;20019;-77
2021/05/20 03:22:42;;;;;;;55.33;26.73;;;8.00;99.90;;;;;;5105568;28;20022;-74
2021/05/20 03:25:08;;;;;;;65.10;29.05;;;8.10;99.90;;;;;;5113584;28;20499;-78
2021/05/20 03:27:34;;;;;;;53.03;26.73;;;8.10;99.90;;;;;;5114563;28;20043;-78
2021/05/20 03:29:59;;;;;;;48.35;27.98;;;8.10;99.90;;;;;;5114609;28;20479;-77
2021/05/20 03:32:25;;;;;;;44.70;28.08;;;8.10;99.90;;;;;;5113348;28;20036;-77
2021/05/20 03:34:50;;;;;;;50.95;29.92;;;8.20;99.90;;;;;;5114571;28;20081;-75
2021/05/20 03:37:16;;;;;;;45.13;28.50;;;8.20;99.90;;;;;;5114329;28;20026;-78
2021/05/20 03:39:42;;;;;;;52.80;29.70;;;9.10;99.90;;;;;;5113615;28;20024;-78
2021/05/20 03:42:07;;;;;;;52.25;29.23;;;8.20;99.90;;;;;;5114690;28;20030;-75
2021/05/20 03:44:33;;;;;;;56.72;29.70;;;8.30;99.90;;;;;;5114144;28;20439;-76
2021/05/20 03:46:58;;;;;;;51.95;29.90;;;8.20;99.90;;;;;;5099438;28;20484;-78
2021/05/20 03:49:24;;;;;;;62.88;29.13;;;8.30;99.90;;;;;;5113920;28;20016;-77
2021/05/20 03:51:50;;;;;;;54.78;30.05;;;8.30;99.90;;;;;;5114027;28;20491;-75
2021/05/20 03:54:15;;;;;;;56.75;30.58;;;8.30;99.90;;;;;;5113279;28;20054;-74
2021/05/20 03:56:41;;;;;;;69.85;29.42;;;8.30;99.90;;;;;;5114378;28;20027;-76
2021/05/20 03:59:06;;;;;;;69.28;29.65;;;8.30;99.90;;;;;;5113237;28;20081;-76
2021/05/20 04:01:32;;;;;;;59.63;28.17;;;8.40;99.90;;;;;;5113870;28;20023;-75
2021/05/20 04:03:58;;;;;;;72.13;28.50;;;8.40;99.90;;;;;;5114056;28;20020;-76
2021/05/20 04:06:23;;;;;;;60.45;28.80;;;8.40;99.90;;;;;;5113144;28;20095;-77
2021/05/20 04:08:49;;;;;;;60.63;27.83;;;8.50;99.90;;;;;;5113802;28;20502;-76
2021/05/20 04:11:14;;;;;;;61.63;28.00;;;8.60;99.90;;;;;;5095094;28;20040;-75
2021/05/20 04:13:42;;;;;;;95.85;26.83;;;8.60;99.90;;;;;;5113324;28;20023;-74
2021/05/20 04:16:12;;;;;;;67.32;23.33;;;8.60;99.90;;;;;;5113990;28;20051;-76
2021/05/20 04:18:38;;;;;;;52.28;22.52;;;8.60;99.90;;;;;;5113819;28;20023;-76
2021/05/20 04:21:04;;;;;;;51.88;22.85;;;8.60;99.90;;;;;;5113341;28;20034;-76
2021/05/20 04:23:30;;;;;;;47.58;22.73;;;8.60;99.90;;;;;;5113464;28;20031;-77
2021/05/20 04:25:55;;;;;;;39.80;22.40;;;8.60;99.90;;;;;;5114000;28;20024;-75
2021/05/20 04:28:21;;;;;;;39.53;22.48;;;8.60;99.90;;;;;;5113372;28;20020;-76
2021/05/20 04:30:47;;;;;;;37.67;21.63;;;8.60;99.90;;;;;;5114977;28;20079;-77
2021/05/20 04:33:14;;;;;;;56.38;22.65;;;8.60;99.90;;;;;;5113191;28;20130;-76
2021/05/20 04:35:40;;;;;;;60.97;22.15;;;8.60;99.90;;;;;;5113468;28;20024;-77
2021/05/20 04:38:07;;;;;;;49.35;23.25;;;8.60;99.90;;;;;;5114669;28;20024;-77
2021/05/20 04:40:34;;;;;;;39.83;21.70;;;8.70;99.90;;;;;;5114063;28;20020;-77
2021/05/20 04:43:00;;;;;;;46.70;23.13;;;8.70;99.90;;;;;;5113346;28;20493;-77
2021/05/20 04:45:27;;;;;;;64.85;25.65;;;8.70;99.90;;;;;;5116205;28;20375;-76
2021/05/20 04:47:52;;;;;;;53.03;25.77;;;8.80;99.90;;;;;;5113972;28;20390;-77
2021/05/20 04:50:18;;;;;;;56.17;24.63;;;8.90;99.90;;;;;;5112432;28;20107;-76
2021/05/20 04:52:45;;;;;;;72.07;25.70;;;9.10;99.90;;;;;;5113333;28;20031;-76
2021/05/20 04:55:12;;;;;;;51.13;25.45;;;9.10;99.90;;;;;;5112479;28;20486;-77
2021/05/20 04:57:38;;;;;;;75.93;27.33;;;9.30;99.90;;;;;;5113027;28;20024;-78
2021/05/20 05:00:06;;;;;;;52.47;26.85;;;9.40;99.90;;;;;;5113390;28;20368;-78
2021/05/20 05:02:32;;;;;;;56.42;26.98;;;9.40;99.90;;;;;;5112102;28;20357;-76
2021/05/20 05:04:57;;;;;;;55.88;27.55;;;9.50;99.90;;;;;;5113477;28;20030;-74
2021/05/20 05:07:23;;;;;;;51.78;26.25;;;9.50;99.90;;;;;;5112080;28;20016;-77
2021/05/20 05:09:48;;;;;;;59.15;27.35;;;9.60;99.90;;;;;;5106653;27;20023;-76
2021/05/20 05:12:14;;;;;;;50.85;27.77;;;9.60;99.90;;;;;;5097595;28;20036;-77
2021/05/20 05:14:40;;;;;;;55.25;28.63;;;9.60;99.90;;;;;;5095970;28;20119;-77
2021/05/20 05:17:05;;;;;;;51.25;28.02;;;9.60;99.90;;;;;;5097045;27;20027;-77
2021/05/20 05:19:31;;;;;;;56.03;30.67;;;9.70;99.90;;;;;;5095148;27;20444;-75
2021/05/20 05:22:00;;;;;;;63.55;31.55;;;9.50;99.90;;;;;;5109734;27;20097;-77
2021/05/20 05:24:26;;;;;;;79.70;29.45;;;9.70;99.90;;;;;;5091745;27;20031;-76
2021/05/20 05:26:51;;;;;;;85.47;29.58;;;9.80;99.90;;;;;;5096670;27;20048;-77
2021/05/20 05:29:17;;;;;;;67.88;28.05;;;9.80;99.90;;;;;;5094253;27;20020;-76
2021/05/20 05:31:43;;;;;;;71.18;28.95;;;9.90;99.90;;;;;;5094877;28;20402;-76
2021/05/20 05:34:08;;;;;;;68.97;30.17;;;9.90;99.90;;;;;;5093997;28;20089;-77
2021/05/20 05:36:34;;;;;;;62.47;29.02;;;10.00;99.90;;;;;;5093697;28;20024;-77
2021/05/20 05:38:59;;;;;;;90.60;29.52;;;10.20;99.90;;;;;;5093747;28;20023;-77
2021/05/20 05:41:25;;;;;;;116.25;29.48;;;10.20;99.90;;;;;;5094642;28;20451;-76
2021/05/20 05:43:51;;;;;;;96.97;30.70;;;10.30;99.90;;;;;;5096445;28;20051;-77
2021/05/20 05:46:16;;;;;;;74.80;31.08;;;10.30;99.90;;;;;;5104698;28;20015;-77
2021/05/20 05:48:43;;;;;;;54.28;27.55;;;10.40;99.90;;;;;;5100015;28;20050;-77
2021/05/20 05:51:12;;;;;;;61.10;28.40;;;10.50;99.90;;;;;;5092402;28;20013;-77
2021/05/20 05:53:38;;;;;;;69.40;30.48;;;10.50;99.90;;;;;;5096815;28;20107;-77
2021/05/20 05:56:03;;;;;;;98.18;30.40;;;10.60;99.90;;;;;;5102492;28;20040;-77
2021/05/20 05:58:29;;;;;;;64.88;32.80;;;10.70;99.90;;;;;;5104630;28;20024;-76
2021/05/20 06:00:55;;;;;;;65.78;30.92;;;10.70;99.90;;;;;;5100720;28;20019;-76
2021/05/20 06:03:22;;;;;;;68.43;32.63;;;10.70;99.90;;;;;;5099076;28;20106;-77
2021/05/20 06:05:50;;;;;;;62.53;32.67;;;10.70;99.90;;;;;;5110174;28;20084;-76
2021/05/20 06:08:16;;;;;;;57.45;31.70;;;10.70;99.90;;;;;;5097332;28;20020;-77
2021/05/20 06:10:42;;;;;;;70.95;35.10;;;10.80;99.90;;;;;;5110586;28;20020;-77
2021/05/20 06:13:08;;;;;;;67.93;36.13;;;10.90;99.90;;;;;;5099494;28;20067;-77
2021/05/20 06:15:33;;;;;;;67.03;37.17;;;10.90;99.90;;;;;;5110618;27;20056;-77
2021/05/20 06:17:59;;;;;;;65.38;38.80;;;11.00;99.90;;;;;;5100303;27;20020;-76
2021/05/20 06:20:25;;;;;;;66.45;39.22;;;11.10;99.90;;;;;;5109470;27;20065;-76
2021/05/20 06:22:51;;;;;;;69.50;41.20;;;11.20;99.90;;;;;;5101829;27;20016;-77
2021/05/20 06:25:17;;;;;;;65.57;40.70;;;11.20;99.90;;;;;;5106582;27;20058;-76
2021/05/20 06:27:42;;;;;;;67.93;37.58;;;11.30;99.90;;;;;;5109710;27;20058;-78
2021/05/20 06:30:08;;;;;;;72.97;38.83;;;11.30;99.90;;;;;;5105365;27;20024;-78
2021/05/20 06:32:35;;;;;;;70.32;37.85;;;11.40;99.90;;;;;;5104419;27;20047;-76
2021/05/20 06:35:02;;;;;;;70.78;39.13;;;11.50;99.90;;;;;;5116583;27;20036;-76
2021/05/20 06:37:27;;;;;;;67.35;37.50;;;11.50;99.90;;;;;;5113583;27;20025;-79
2021/05/20 06:39:53;;;;;;;73.25;37.17;;;11.60;99.90;;;;;;5104600;27;20017;-79
2021/05/20 06:42:18;;;;;;;68.03;36.40;;;11.60;99.90;;;;;;5111068;27;20020;-79
2021/05/20 06:44:44;;;;;;;71.65;39.75;;;11.70;99.90;;;;;;5114609;28;20024;-79
2021/05/20 06:47:10;;;;;;;67.97;38.63;;;11.80;99.90;;;;;;5102997;27;20051;-80
2021/05/20 06:49:35;;;;;;;69.50;40.70;;;12.00;99.90;;;;;;5095724;27;20024;-77
2021/05/20 06:52:01;;;;;;;66.22;38.80;;;12.00;99.90;;;;;;5111813;27;20032;-78
2021/05/20 06:54:26;;;;;;;67.15;40.63;;;12.20;99.90;;;;;;5114926;27;20030;-78
2021/05/20 06:56:58;;;;;;;70.50;40.20;;;12.20;99.90;;;;;;5113975;27;20425;-79
2021/05/20 07:02:08;;;;;;;60.60;37.47;;;12.30;99.90;;;;;;5125138;27;20385;-78
2021/05/20 07:04:34;;;;;;;61.78;37.58;;;12.40;99.90;;;;;;5127350;27;20027;-78
2021/05/20 07:07:03;;;;;;;48.97;34.90;;;12.60;99.90;;;;;;5127242;27;20019;-79
2021/05/20 07:09:33;;;;;;;54.40;36.67;;;12.80;99.90;;;;;;5123604;27;20016;-78
2021/05/20 07:12:02;;;;;;;50.55;32.90;;;13.00;99.90;;;;;;5105436;27;20050;-80
2021/05/20 07:14:27;;;;;;;46.88;30.92;;;13.00;99.90;;;;;;5115467;27;20162;-79
2021/05/20 07:16:53;;;;;;;44.60;32.13;;;13.10;99.90;;;;;;5122133;27;20060;-79
2021/05/20 07:19:19;;;;;;;45.03;30.98;;;13.10;99.90;;;;;;5121307;27;20029;-77
2021/05/20 07:21:45;;;;;;;45.22;29.58;;;13.10;99.90;;;;;;5119084;27;20051;-77
2021/05/20 07:24:11;;;;;;;45.30;30.52;;;13.00;99.90;;;;;;5124025;27;20478;-74
2021/05/20 07:26:36;;;;;;;41.35;30.23;;;13.00;99.90;;;;;;5114578;27;20123;-77
2021/05/20 07:29:04;;;;;;;43.13;30.00;;;12.90;99.90;;;;;;5114282;27;20111;-77
2021/05/20 07:31:30;;;;;;;36.03;26.98;;;12.80;99.90;;;;;;5093778;28;20030;-77
2021/05/20 07:33:55;;;;;;;34.42;25.17;;;12.70;99.90;;;;;;5094517;27;20119;-76
2021/05/20 07:36:22;;;;;;;37.40;26.70;;;12.60;99.90;;;;;;5098384;27;20057;-77
2021/05/20 07:38:48;;;;;;;40.15;28.77;;;12.50;99.90;;;;;;5107689;27;20466;-76
2021/05/20 07:41:15;;;;;;;46.40;31.42;;;12.50;99.90;;;;;;5108953;27;20034;-77
2021/05/20 07:43:40;;;;;;;44.05;31.02;;;12.70;99.90;;;;;;5108108;27;20034;-76
2021/05/20 07:46:06;;;;;;;43.47;31.48;;;12.90;99.90;;;;;;5128705;27;20429;-77
2021/05/20 07:48:33;;;;;;;37.30;27.48;;;13.10;99.90;;;;;;5125053;27;20042;-79
2021/05/20 07:51:04;;;;;;;35.15;26.05;;;13.30;99.90;;;;;;5104932;27;20413;-77
2021/05/20 07:53:29;;;;;;;39.03;27.17;;;13.50;99.90;;;;;;5128335;27;20031;-77
2021/05/20 07:55:55;;;;;;;43.13;28.80;;;13.60;99.90;;;;;;5127205;27;20085;-77
2021/05/20 07:58:21;;;;;;;36.00;26.88;;;13.80;99.90;;;;;;5128151;27;20031;-79
2021/05/20 08:00:47;;;;;;;34.22;26.20;;;14.00;99.90;;;;;;5123716;27;20383;-78
2021/05/20 08:08:36;;;;;;;28.15;22.67;;;14.20;99.90;;;;;;5096962;27;20020;-78
2021/05/20 08:11:07;;;;;;;;;;;14.30;99.90;;;;;;5097214;27;20099;-75
2021/05/20 08:13:35;;;;;;;28.00;22.63;;;14.30;99.90;;;;;;5092347;28;19957;-77
2021/05/20 08:16:02;;;;;;;32.50;25.75;;;14.30;99.90;;;;;;5099049;28;20036;-76
2021/05/20 08:18:29;;;;;;;33.35;22.80;;;14.40;99.90;;;;;;5097128;28;20064;-79
2021/05/20 08:20:56;;;;;;;33.85;23.70;;;14.40;99.90;;;;;;5099034;28;20031;-78
2021/05/20 08:23:22;;;;;;;29.60;23.55;;;14.50;99.90;;;;;;5096807;28;20032;-79
2021/05/20 08:25:47;;;;;;;31.02;23.95;;;14.50;99.90;;;;;;5104726;28;20024;-78
2021/05/20 08:28:13;;;;;;;29.45;23.77;;;14.50;99.90;;;;;;5091946;28;20020;-79
2021/05/20 08:30:39;;;;;;;30.05;24.98;;;14.30;99.90;;;;;;5108494;27;20305;-79
2021/05/20 08:33:05;;;;;;;31.67;24.20;;;14.20;99.90;;;;;;5110320;27;20067;-81
2021/05/20 08:35:30;;;;;;;29.90;23.83;;;14.10;99.90;;;;;;5105120;27;20022;-79
2021/05/20 08:37:56;;;;;;;32.00;24.20;;;14.10;99.90;;;;;;5097544;28;20028;-79
2021/05/20 08:40:22;;;;;;;33.00;24.35;;;14.40;99.90;;;;;;5102225;27;20110;-79
2021/05/20 08:42:48;;;;;;;36.33;25.52;;;14.10;99.90;;;;;;5092122;28;20507;-78
2021/05/20 08:45:15;;;;;;;33.10;26.52;;;14.30;99.90;;;;;;5099927;27;20073;-81
2021/05/20 08:47:41;;;;;;;33.38;25.67;;;14.30;99.90;;;;;;5100912;27;20032;-80
2021/05/20 08:50:08;;;;;;;38.60;25.73;;;14.20;99.90;;;;;;5095648;28;20048;-78
2021/05/20 08:52:36;;;;;;;35.50;24.38;;;14.20;99.90;;;;;;5091711;27;20032;-80
2021/05/20 08:55:03;;;;;;;32.45;23.45;;;14.20;99.90;;;;;;5093031;27;20069;-79
2021/05/20 08:57:28;;;;;;;34.17;23.33;;;14.20;99.90;;;;;;5100404;28;20110;-80
2021/05/20 08:59:54;;;;;;;36.08;24.00;;;14.30;99.90;;;;;;5106340;27;20196;-79
2021/05/20 09:02:27;;;;;;;37.63;24.80;;;14.30;99.90;;;;;;5101924;27;20028;-80
2021/05/20 09:04:57;;;;;;;33.58;24.08;;;14.40;99.90;;;;;;5096699;28;20020;-78
2021/05/20 09:07:33;;;;;;;34.75;22.17;;;14.40;99.90;;;;;;5098283;28;20040;-79
2021/05/20 09:10:17;;;;;;;36.10;23.40;;;14.40;99.90;;;;;;5102391;28;20023;-79
2021/05/20 09:12:43;;;;;;;36.58;23.15;;;14.50;99.90;;;;;;5099972;28;20487;-78
2021/05/20 09:15:16;;;;;;;36.40;23.75;;;14.50;99.90;;;;;;5110786;27;20208;-79
2021/05/20 09:17:42;;;;;;;32.40;21.45;;;14.60;99.90;;;;;;5096855;27;20038;-78
2021/05/20 09:20:08;;;;;;;35.53;23.52;;;14.70;99.90;;;;;;5104496;27;20123;-78
2021/05/20 09:22:35;;;;;;;35.42;24.08;;;14.80;99.90;;;;;;5121437;27;20023;-78
2021/05/20 09:25:01;;;;;;;34.10;23.33;;;14.90;99.90;;;;;;5116910;27;20024;-78
2021/05/20 09:27:42;;;;;;;32.83;21.90;;;15.00;99.90;;;;;;5106613;28;20031;-78
2021/05/20 09:30:07;;;;;;;;;;;15.10;99.90;;;;;;5116566;28;20081;-79
2021/05/20 09:32:37;;;;;;;27.48;20.13;;;15.20;99.90;;;;;;5110590;27;19915;-80
2021/05/20 09:35:04;;;;;;;30.95;22.38;;;15.30;99.90;;;;;;5110613;28;20015;-80
2021/05/20 09:37:30;;;;;;;29.52;21.40;;;15.40;99.90;;;;;;5117543;28;20035;-79
2021/05/20 09:40:01;;;;;;;26.05;20.35;;;15.40;99.90;;;;;;5128740;28;20399;-79
2021/05/20 09:42:30;;;;;;;26.67;19.60;;;15.50;99.90;;;;;;5116139;28;20436;-79
2021/05/20 09:45:05;;;;;;;31.45;21.08;;;15.60;99.90;;;;;;5123777;28;20130;-78
2021/05/20 09:47:31;;;;;;;28.92;20.20;;;15.80;99.90;;;;;;5116682;27;20081;-79
2021/05/20 09:50:08;;;;;;;24.75;17.33;;;15.90;99.90;;;;;;5128721;27;20459;-80
2021/05/20 09:52:34;;;;;;;20.98;15.30;;;16.00;99.90;;;;;;5118758;27;20115;-80
2021/05/20 09:55:00;;;;;;;19.52;14.43;;;16.10;99.90;;;;;;5115502;27;20095;-79
2021/05/20 09:57:31;;;;;;;20.25;13.65;;;16.20;99.90;;;;;;5120145;27;20480;-79
2021/05/20 10:00:02;;;;;;;20.35;13.38;;;16.20;99.90;;;;;;5108966;27;20110;-79
2021/05/20 10:02:29;;;;;;;15.05;10.98;;;16.30;99.90;;;;;;5121686;27;20111;-79
2021/05/20 10:04:54;;;;;;;9.77;8.88;;;16.30;99.90;;;;;;5125786;27;20053;-77
2021/05/20 10:07:30;;;;;;;9.18;8.23;;;16.30;99.90;;;;;;5105657;27;20459;-73
2021/05/20 10:09:56;;;;;;;10.40;9.23;;;16.40;99.90;;;;;;5117723;27;20012;-75
2021/05/20 10:12:23;;;;;;;11.65;10.48;;;16.40;99.90;;;;;;5105167;28;20032;-71
2021/05/20 10:14:49;;;;;;;19.35;14.20;;;16.50;99.90;;;;;;5116091;28;20095;-79
2021/05/20 10:17:17;;;;;;;16.15;14.43;;;16.60;99.90;;;;;;5116117;28;20019;-79
2021/05/20 10:19:47;;;;;;;21.50;15.77;;;16.80;99.90;;;;;;5115415;28;20027;-81
2021/05/20 10:22:14;;;;;;;15.00;13.45;;;16.90;99.90;;;;;;5103173;28;20027;-81
2021/05/20 10:24:43;;;;;;;16.88;15.15;;;17.00;99.90;;;;;;5117527;28;20039;-80
2021/05/20 10:27:10;;;;;;;16.80;14.38;;;17.10;99.90;;;;;;5119060;28;20480;-80
2021/05/20 10:29:38;;;;;;;15.23;13.68;;;17.20;99.90;;;;;;5115539;28;20032;-79
2021/05/20 10:32:05;;;;;;;16.00;13.48;;;17.30;99.90;;;;;;5115797;28;20043;-80
2021/05/20 10:34:36;;;;;;;14.43;11.52;;;17.40;99.90;;;;;;5115814;28;20488;-79
2021/05/20 10:37:06;;;;;;;19.75;15.57;;;17.40;99.90;;;;;;5103188;28;20048;-79
2021/05/20 10:39:32;;;;;;;;;;;17.50;99.90;;;;;;5117240;28;20024;-81
2021/05/20 10:41:58;;;;;;;17.63;13.57;;;17.60;99.90;;;;;;5116683;28;20271;-81
2021/05/20 10:44:25;;;;;;;13.50;11.52;;;17.70;99.90;;;;;;5117649;28;20099;-80
2021/05/20 10:46:56;;;;;;;16.05;13.35;;;17.80;99.90;;;;;;5120145;28;20024;-80
2021/05/20 10:49:57;;;;;;;18.20;12.55;;;17.90;99.90;;;;;;5114323;27;20102;-79
2021/05/20 10:52:38;;;;;;;20.05;13.70;;;18.00;99.90;;;;;;5107178;27;20431;-80
2021/05/20 10:55:08;;;;;;;18.77;14.20;;;18.00;99.90;;;;;;5102215;28;20024;-78
2021/05/20 10:57:49;;;;;;;;;;;18.10;99.90;;;;;;5100621;27;20024;-79
2021/05/20 11:00:40;;;;;;;18.10;15.05;;;18.10;99.90;;;;;;5107249;28;19931;-78
2021/05/20 11:03:07;;;;;;;17.90;15.82;;;18.00;99.90;;;;;;5109865;27;20027;-78
2021/05/20 11:05:42;;;;;;;18.75;16.20;;;18.00;99.90;;;;;;5100531;28;20112;-80
2021/05/20 11:08:08;;;;;;;20.50;16.73;;;18.10;99.90;;;;;;5114074;27;20442;-78
2021/05/20 11:10:37;;;;;;;17.60;15.40;;;18.20;99.90;;;;;;5104855;27;20077;-78
2021/05/20 11:13:05;;;;;;;19.02;16.60;;;18.30;99.90;;;;;;5098035;28;20031;-79
2021/05/20 11:15:30;;;;;;;19.38;14.43;;;18.30;99.90;;;;;;5101830;28;20463;-78
2021/05/20 11:18:16;;;;;;;15.27;13.88;;;18.30;99.90;;;;;;5097406;28;20034;-79
2021/05/20 11:20:59;;;;;;;15.65;13.45;;;18.30;99.90;;;;;;5100204;28;20426;-78
2021/05/20 11:23:26;;;;;;;11.30;10.30;;;18.40;99.90;;;;;;5100533;27;20059;-80
2021/05/20 11:26:06;;;;;;;10.80;9.80;;;18.40;99.30;;;;;;5110024;27;20032;-80
2021/05/20 11:28:42;;;;;;;11.05;9.90;;;18.40;97.60;;;;;;5105269;27;20353;-78
2021/05/20 11:31:09;;;;;;;13.52;11.35;;;18.30;97.90;;;;;;5109263;28;20028;-77
2021/05/20 11:33:53;;;;;;;10.90;10.00;;;18.30;97.80;;;;;;5107318;27;20545;-79
2021/05/20 11:36:19;;;;;;;16.38;11.73;;;18.40;97.80;;;;;;5108143;27;20476;-79
2021/05/20 11:39:12;;;;;;;13.13;11.77;;;18.40;97.60;;;;;;5108360;27;20169;-79
2021/05/20 11:41:42;;;;;;;12.10;11.00;;;18.60;97.40;;;;;;5099528;27;20064;-78
2021/05/20 11:44:38;;;;;;;11.98;9.60;;;18.60;97.50;;;;;;5111172;27;20023;-79
2021/05/20 11:47:08;;;;;;;11.18;9.55;;;18.60;96.60;;;;;;5093722;27;20071;-79
2021/05/20 11:49:36;;;;;;;11.20;10.00;;;18.50;95.90;;;;;;5105851;27;20024;-77
2021/05/20 11:52:09;;;;;;;12.30;9.88;;;18.50;95.70;;;;;;5110331;27;20089;-78
2021/05/20 11:54:36;;;;;;;10.18;9.20;;;18.50;95.30;;;;;;5105638;27;20077;-80
2021/05/20 11:57:05;;;;;;;9.98;9.05;;;18.40;95.20;;;;;;5107715;27;20024;-77
2021/05/20 11:59:37;;;;;;;10.38;9.30;;;18.40;95.50;;;;;;5111969;27;20020;-78
2021/05/20 12:02:08;;;;;;;8.80;8.00;;;18.30;94.70;;;;;;5108375;27;20020;-78
2021/05/20 12:04:34;;;;;;;8.43;7.60;;;18.20;94.80;;;;;;5106100;27;20032;-78
2021/05/20 12:07:01;;;;;;;9.13;8.43;;;18.00;95.20;;;;;;5100138;27;20016;-79
2021/05/20 12:09:27;;;;;;;7.80;7.10;;;17.90;95.90;;;;;;5101286;27;20026;-77
2021/05/20 12:11:53;;;;;;;8.00;7.45;;;17.80;96.00;;;;;;5096143;28;20024;-79
2021/05/20 12:14:32;;;;;;;8.77;8.02;;;17.90;96.30;;;;;;5096962;28;20057;-79
2021/05/20 12:17:03;;;;;;;7.50;7.03;;;17.90;95.20;;;;;;5101843;27;20126;-79
2021/05/20 12:19:30;;;;;;;6.65;6.07;;;17.80;94.90;;;;;;5095694;28;20376;-79
2021/05/20 12:22:10;;;;;;;6.80;6.30;;;17.80;95.80;;;;;;5103724;27;20024;-78
2021/05/20 12:24:42;;;;;;;9.60;8.13;;;17.80;96.40;;;;;;5101731;27;20038;-78
2021/05/20 12:27:11;;;;;;;11.00;8.40;;;17.80;96.30;;;;;;5108062;27;20043;-80
2021/05/20 12:29:39;;;;;;;8.85;8.05;;;17.80;96.10;;;;;;5096495;27;20040;-78
2021/05/20 12:32:06;;;;;;;8.88;8.07;;;18.30;96.20;;;;;;5096874;27;20136;-80
2021/05/20 12:34:32;;;;;;;8.32;7.35;;;17.60;95.80;;;;;;5096205;27;20042;-78
2021/05/20 12:37:05;;;;;;;8.13;7.47;;;17.50;95.70;;;;;;5100352;28;20024;-80
2021/05/20 12:39:31;;;;;;;6.72;6.18;;;17.50;96.00;;;;;;5097266;28;20024;-76
2021/05/20 12:41:58;;;;;;;7.32;6.78;;;17.60;96.30;;;;;;5098125;27;20056;-79
2021/05/20 12:44:24;;;;;;;5.78;5.30;;;17.70;96.40;;;;;;5098784;27;20055;-79